Queen Elizabeth — ZCEF2 — position and weather

sailwx.info

Track history (hours):
 
Tides and Currents Weather Stations Pressure Air Temp Water Temp Dewpoint Dewpoint Depression Visibility Wind Speed Wind Dir Waves Ship Positions

Queen Elizabeth

Last reported at 2018-Nov-14 22:00 UTC. Time now 2018-Nov-18 16:09 UTC.
Position N 49°00' W 004°30'.

Length 294 m; draft 8 m.

Type: Passenger vessel. MMSI: 310625000.

Wind from 170 at 26 knots

Barometer 1017.2 mb
Air temperature 12.0 ° C
Visibility: greater than 10.8 NM
Dewpoint 12.0 ° C
Water temperature 14.0 ° C

Date/timePositionNaut miles runAvg speedWind from/ knotsBaromVisibWave heightAir tempDewpointWater temp
2018-Nov-14 22:00N 49°00' W 004°30'8922.1 170 / 261017.210.8 12.012.014.0
2018-Nov-14 18:00N 49°54' W 002°42'18 1.0 190 / 151019.710.8 13.0 9.115.0
2018-Nov-13 23:00N 50°12' W 002°48'30018.7 210 / 351024.810.8 14.010.215.0
2018-Nov-13 07:00N 46°12' W 007°18'47013.1 230 / 141024.710.8 14.0 8.016.0
2018-Nov-11 19:00N 39°00' W 011°30'20318.5 270 / 191010.210.8 15.011.318.0
2018-Nov-11 08:00N 36°06' W 013°42'15116.8 220 / 181012.6 5.4 19.017.420.0
2018-Nov-10 23:00N 34°00' W 015°24'250 5.3 280 / 151019.010.8 20.014.922.0
2018-Nov-09 00:00N 29°54' W 016°18'6117.7 060 / 241025.410.8 20.514.623.0
2018-Nov-08 20:33N 28°54' W 016°05'120.3
2018-Nov-08 20:31N 28°54' W 016°05'1020.1
2018-Nov-08 20:02N 28°44' W 016°03'1019.6
2018-Nov-08 19:32N 28°34' W 016°04'918.5
2018-Nov-08 19:02N 28°27' W 016°09'5 9.7
2018-Nov-08 18:33N 28°29' W 016°14'0 0.1
2018-Nov-08 18:00N 28°29' W 016°14'0 0.0
2018-Nov-08 17:30N 28°29' W 016°14'0 0.0
2018-Nov-08 17:00N 28°29' W 016°14'0 0.0
2018-Nov-08 16:30N 28°29' W 016°14'0 0.0
2018-Nov-08 16:00N 28°29' W 016°14'0 0.0
2018-Nov-08 15:30N 28°29' W 016°14'0 0.0
2018-Nov-08 14:57N 28°29' W 016°14'0 0.0
2018-Nov-08 14:30N 28°29' W 016°14'0 0.0
2018-Nov-08 14:00N 28°29' W 016°14'0 0.0
2018-Nov-08 13:30N 28°29' W 016°14'0 0.0
2018-Nov-08 13:00N 28°29' W 016°14'0 0.0
2018-Nov-08 12:30N 28°29' W 016°14'0 0.0
2018-Nov-08 12:00N 28°29' W 016°14'0 0.0
2018-Nov-08 11:30N 28°29' W 016°14'0 0.0
2018-Nov-08 11:00N 28°29' W 016°14'0 0.0
2018-Nov-08 10:30N 28°29' W 016°14'0 0.0
2018-Nov-08 10:00N 28°29' W 016°14'0 0.0
2018-Nov-08 09:27N 28°29' W 016°14'0 0.0
2018-Nov-08 08:57N 28°29' W 016°14'0 0.0
2018-Nov-08 08:30N 28°29' W 016°14'0 0.0
2018-Nov-08 07:57N 28°29' W 016°14'0 0.0
2018-Nov-08 07:30N 28°29' W 016°14'0 1.0
2018-Nov-08 07:02N 28°29' W 016°14'3 6.2
2018-Nov-08 06:32N 28°27' W 016°11'612.2
2018-Nov-08 06:02N 28°26' W 016°04'612.5
2018-Nov-08 05:32N 28°23' W 015°58'510.8
2018-Nov-08 05:02N 28°18' W 015°58'611.4
2018-Nov-08 04:32N 28°14' W 016°02'510.7
2018-Nov-08 04:02N 28°09' W 016°06'510.5
2018-Nov-08 03:31N 28°05' W 016°09'610.6
2018-Nov-08 02:55N 27°60' W 016°14'710.7
2018-Nov-08 02:18N 27°58' W 016°21'1812.3
2018-Nov-08 00:52N 27°53' W 016°40'53 9.1
2018-Nov-07 19:00N 28°30' W 017°24'78 4.0 040 / 121019.110.8 21.012.224.0
2018-Nov-06 23:29N 28°49' W 015°58'612.9
2018-Nov-06 23:03N 28°46' W 015°53'113.1
2018-Nov-06 23:00N 28°46' W 015°52'1312.9
2018-Nov-06 22:00N 28°39' W 015°40'612.7
2018-Nov-06 21:30N 28°35' W 015°34'612.8
2018-Nov-06 21:03N 28°32' W 015°29'112.7
2018-Nov-06 21:00N 28°32' W 015°28'713.0
2018-Nov-06 20:30N 28°28' W 015°23'612.7
2018-Nov-06 20:03N 28°24' W 015°18'112.3
2018-Nov-06 20:00N 28°23' W 015°17'611.9
2018-Nov-06 19:30N 28°17' W 015°18'612.5
2018-Nov-06 19:03N 28°12' W 015°20'112.6
2018-Nov-06 19:00N 28°11' W 015°20'511.0
2018-Nov-06 18:30N 28°07' W 015°24'2 4.2
2018-Nov-06 18:03N 28°08' W 015°25'0 1.3
2018-Nov-06 18:00N 28°08' W 015°25'0 0.0
2018-Nov-06 17:20N 28°08' W 015°25'0 0.0
2018-Nov-06 17:02N 28°08' W 015°25'0 0.0
2018-Nov-06 16:53N 28°08' W 015°25'0 0.0
2018-Nov-06 16:23N 28°08' W 015°25'0 0.0
2018-Nov-06 16:02N 28°08' W 015°25'0 0.0
2018-Nov-06 15:50N 28°08' W 015°25'0 0.0
2018-Nov-06 15:23N 28°08' W 015°25'0 0.0
2018-Nov-06 14:53N 28°08' W 015°25'0 0.0
2018-Nov-06 14:23N 28°08' W 015°25'0 0.0
2018-Nov-06 13:56N 28°08' W 015°25'0 0.0
2018-Nov-06 13:26N 28°08' W 015°25'0 0.0
2018-Nov-06 12:56N 28°08' W 015°25'0 0.0
2018-Nov-06 12:26N 28°08' W 015°25'0 0.0
2018-Nov-06 11:56N 28°08' W 015°25'0 0.0
2018-Nov-06 11:26N 28°08' W 015°25'0 0.0
2018-Nov-06 10:59N 28°08' W 015°25'0 0.0
2018-Nov-06 10:29N 28°08' W 015°25'0 0.0
2018-Nov-06 09:59N 28°08' W 015°25'0 0.0
2018-Nov-06 09:29N 28°08' W 015°25'0 0.0
2018-Nov-06 08:59N 28°08' W 015°25'0 0.0
2018-Nov-06 08:29N 28°08' W 015°25'0 0.0
2018-Nov-06 08:02N 28°08' W 015°25'0 0.0
2018-Nov-06 07:59N 28°08' W 015°25'0 0.0
2018-Nov-06 07:26N 28°08' W 015°25'0 0.0
2018-Nov-06 07:02N 28°08' W 015°25'0 0.0
2018-Nov-06 06:59N 28°08' W 015°25'0 0.5
2018-Nov-06 06:30N 28°08' W 015°25'2 5.4
2018-Nov-06 06:03N 28°07' W 015°23'0 7.5
2018-Nov-06 06:00N 28°07' W 015°23'611.7
2018-Nov-06 05:30N 28°07' W 015°16'612.8
2018-Nov-06 05:03N 28°08' W 015°09'112.8
2018-Nov-06 05:00N 28°08' W 015°09'612.4
2018-Nov-06 04:30N 28°08' W 015°02'612.6
2018-Nov-06 04:03N 28°05' W 014°57'111.9
2018-Nov-06 04:00N 28°04' W 014°56'612.6
2018-Nov-06 03:30N 27°58' W 014°58'613.0
2018-Nov-06 03:03N 27°53' W 014°60'114.0
2018-Nov-06 03:01N 27°52' W 015°00'611.1
2018-Nov-06 02:30N 27°47' W 014°58'613.1
2018-Nov-06 02:03N 27°45' W 014°51'112.7
2018-Nov-06 02:00N 27°45' W 014°50'712.9
2018-Nov-06 01:30N 27°44' W 014°43'4313.2
2018-Nov-05 22:14N 28°05' W 014°01'513.3
2018-Nov-05 21:53N 28°07' W 013°56'3312.8
2018-Nov-05 19:21N 28°36' W 013°40'613.2
2018-Nov-05 18:53N 28°42' W 013°38'513.5
2018-Nov-05 18:30N 28°47' W 013°36'613.5
2018-Nov-05 18:03N 28°53' W 013°33'113.3
2018-Nov-05 18:00N 28°53' W 013°33'5 9.6
2018-Nov-05 17:30N 28°58' W 013°32'0 0.0
2018-Nov-05 17:00N 28°58' W 013°32'0 0.0
2018-Nov-05 16:24N 28°58' W 013°32'0 0.0
2018-Nov-05 15:36N 28°58' W 013°32'0 0.0
2018-Nov-05 14:51N 28°58' W 013°32'0 0.0
2018-Nov-05 14:24N 28°58' W 013°32'0 0.0
2018-Nov-05 13:48N 28°58' W 013°32'0 0.0
2018-Nov-05 12:54N 28°58' W 013°32'0 0.0
2018-Nov-05 12:30N 28°58' W 013°32'0 0.0
2018-Nov-05 11:24N 28°58' W 013°32'0 0.0
2018-Nov-05 11:00N 28°58' W 013°32'0 0.0
2018-Nov-05 10:18N 28°58' W 013°32'0 0.0
2018-Nov-05 09:54N 28°58' W 013°32'0 0.0
2018-Nov-05 09:24N 28°58' W 013°32'0 0.0
2018-Nov-05 08:48N 28°58' W 013°32'0 0.0
2018-Nov-05 07:48N 28°58' W 013°32'0 0.0
2018-Nov-05 07:28N 28°58' W 013°32'0 1.0
2018-Nov-05 07:03N 28°57' W 013°32'0 2.4
2018-Nov-05 07:00N 28°57' W 013°32'611.8
2018-Nov-05 06:29N 28°60' W 013°25'715.6
2018-Nov-05 06:03N 29°03' W 013°19'116.2
2018-Nov-05 06:00N 29°04' W 013°18'  
Track history (hours):
 
Tides and Currents Weather Stations Pressure Air Temp Water Temp Dewpoint Dewpoint Depression Visibility Wind Speed Wind Dir Waves Ship Positions

Queen Elizabeth

Last reported at 2018-Nov-14 22:00 UTC. Time now 2018-Nov-18 16:09 UTC.
Position N 49°00' W 004°30'.

Length 294 m; draft 8 m.

Type: Passenger vessel. MMSI: 310625000.

Wind from 170 at 26 knots

Barometer 1017.2 mb
Air temperature 12.0 ° C
Visibility: greater than 10.8 NM
Dewpoint 12.0 ° C
Water temperature 14.0 ° C

Date/timePositionNaut miles runAvg speedWind from/ knotsBaromVisibWave heightAir tempDewpointWater temp
2018-Nov-14 22:00N 49°00' W 004°30'8922.1 170 / 261017.210.8 12.012.014.0
2018-Nov-14 18:00N 49°54' W 002°42'18 1.0 190 / 151019.710.8 13.0 9.115.0
2018-Nov-13 23:00N 50°12' W 002°48'30018.7 210 / 351024.810.8 14.010.215.0
2018-Nov-13 07:00N 46°12' W 007°18'47013.1 230 / 141024.710.8 14.0 8.016.0
2018-Nov-11 19:00N 39°00' W 011°30'20318.5 270 / 191010.210.8 15.011.318.0
2018-Nov-11 08:00N 36°06' W 013°42'15116.8 220 / 181012.6 5.4 19.017.420.0
2018-Nov-10 23:00N 34°00' W 015°24'250 5.3 280 / 151019.010.8 20.014.922.0
2018-Nov-09 00:00N 29°54' W 016°18'6117.7 060 / 241025.410.8 20.514.623.0
2018-Nov-08 20:33N 28°54' W 016°05'120.3
2018-Nov-08 20:31N 28°54' W 016°05'1020.1
2018-Nov-08 20:02N 28°44' W 016°03'1019.6
2018-Nov-08 19:32N 28°34' W 016°04'918.5
2018-Nov-08 19:02N 28°27' W 016°09'5 9.7
2018-Nov-08 18:33N 28°29' W 016°14'0 0.1
2018-Nov-08 18:00N 28°29' W 016°14'0 0.0
2018-Nov-08 17:30N 28°29' W 016°14'0 0.0
2018-Nov-08 17:00N 28°29' W 016°14'0 0.0
2018-Nov-08 16:30N 28°29' W 016°14'0 0.0
2018-Nov-08 16:00N 28°29' W 016°14'0 0.0
2018-Nov-08 15:30N 28°29' W 016°14'0 0.0
2018-Nov-08 14:57N 28°29' W 016°14'0 0.0
2018-Nov-08 14:30N 28°29' W 016°14'0 0.0
2018-Nov-08 14:00N 28°29' W 016°14'0 0.0
2018-Nov-08 13:30N 28°29' W 016°14'0 0.0
2018-Nov-08 13:00N 28°29' W 016°14'0 0.0
2018-Nov-08 12:30N 28°29' W 016°14'0 0.0
2018-Nov-08 12:00N 28°29' W 016°14'0 0.0
2018-Nov-08 11:30N 28°29' W 016°14'0 0.0
2018-Nov-08 11:00N 28°29' W 016°14'0 0.0
2018-Nov-08 10:30N 28°29' W 016°14'0 0.0
2018-Nov-08 10:00N 28°29' W 016°14'0 0.0
2018-Nov-08 09:27N 28°29' W 016°14'0 0.0
2018-Nov-08 08:57N 28°29' W 016°14'0 0.0
2018-Nov-08 08:30N 28°29' W 016°14'0 0.0
2018-Nov-08 07:57N 28°29' W 016°14'0 0.0
2018-Nov-08 07:30N 28°29' W 016°14'0 1.0
2018-Nov-08 07:02N 28°29' W 016°14'3 6.2
2018-Nov-08 06:32N 28°27' W 016°11'612.2
2018-Nov-08 06:02N 28°26' W 016°04'612.5
2018-Nov-08 05:32N 28°23' W 015°58'510.8
2018-Nov-08 05:02N 28°18' W 015°58'611.4
2018-Nov-08 04:32N 28°14' W 016°02'510.7
2018-Nov-08 04:02N 28°09' W 016°06'510.5
2018-Nov-08 03:31N 28°05' W 016°09'610.6
2018-Nov-08 02:55N 27°60' W 016°14'710.7
2018-Nov-08 02:18N 27°58' W 016°21'1812.3
2018-Nov-08 00:52N 27°53' W 016°40'53 9.1
2018-Nov-07 19:00N 28°30' W 017°24'78 4.0 040 / 121019.110.8 21.012.224.0
2018-Nov-06 23:29N 28°49' W 015°58'612.9
2018-Nov-06 23:03N 28°46' W 015°53'113.1
2018-Nov-06 23:00N 28°46' W 015°52'1312.9
2018-Nov-06 22:00N 28°39' W 015°40'612.7
2018-Nov-06 21:30N 28°35' W 015°34'612.8
2018-Nov-06 21:03N 28°32' W 015°29'112.7
2018-Nov-06 21:00N 28°32' W 015°28'713.0
2018-Nov-06 20:30N 28°28' W 015°23'612.7
2018-Nov-06 20:03N 28°24' W 015°18'112.3
2018-Nov-06 20:00N 28°23' W 015°17'611.9
2018-Nov-06 19:30N 28°17' W 015°18'612.5
2018-Nov-06 19:03N 28°12' W 015°20'112.6
2018-Nov-06 19:00N 28°11' W 015°20'511.0
2018-Nov-06 18:30N 28°07' W 015°24'2 4.2
2018-Nov-06 18:03N 28°08' W 015°25'0 1.3
2018-Nov-06 18:00N 28°08' W 015°25'0 0.0
2018-Nov-06 17:20N 28°08' W 015°25'0 0.0
2018-Nov-06 17:02N 28°08' W 015°25'0 0.0
2018-Nov-06 16:53N 28°08' W 015°25'0 0.0
2018-Nov-06 16:23N 28°08' W 015°25'0 0.0
2018-Nov-06 16:02N 28°08' W 015°25'0 0.0
2018-Nov-06 15:50N 28°08' W 015°25'0 0.0
2018-Nov-06 15:23N 28°08' W 015°25'0 0.0
2018-Nov-06 14:53N 28°08' W 015°25'0 0.0
2018-Nov-06 14:23N 28°08' W 015°25'0 0.0
2018-Nov-06 13:56N 28°08' W 015°25'0 0.0
2018-Nov-06 13:26N 28°08' W 015°25'0 0.0
2018-Nov-06 12:56N 28°08' W 015°25'0 0.0
2018-Nov-06 12:26N 28°08' W 015°25'0 0.0
2018-Nov-06 11:56N 28°08' W 015°25'0 0.0
2018-Nov-06 11:26N 28°08' W 015°25'0 0.0
2018-Nov-06 10:59N 28°08' W 015°25'0 0.0
2018-Nov-06 10:29N 28°08' W 015°25'0 0.0
2018-Nov-06 09:59N 28°08' W 015°25'0 0.0
2018-Nov-06 09:29N 28°08' W 015°25'0 0.0
2018-Nov-06 08:59N 28°08' W 015°25'0 0.0
2018-Nov-06 08:29N 28°08' W 015°25'0 0.0
2018-Nov-06 08:02N 28°08' W 015°25'0 0.0
2018-Nov-06 07:59N 28°08' W 015°25'0 0.0
2018-Nov-06 07:26N 28°08' W 015°25'0 0.0
2018-Nov-06 07:02N 28°08' W 015°25'0 0.0
2018-Nov-06 06:59N 28°08' W 015°25'0 0.5
2018-Nov-06 06:30N 28°08' W 015°25'2 5.4
2018-Nov-06 06:03N 28°07' W 015°23'0 7.5
2018-Nov-06 06:00N 28°07' W 015°23'611.7
2018-Nov-06 05:30N 28°07' W 015°16'612.8
2018-Nov-06 05:03N 28°08' W 015°09'112.8
2018-Nov-06 05:00N 28°08' W 015°09'612.4
2018-Nov-06 04:30N 28°08' W 015°02'612.6
2018-Nov-06 04:03N 28°05' W 014°57'111.9
2018-Nov-06 04:00N 28°04' W 014°56'612.6
2018-Nov-06 03:30N 27°58' W 014°58'613.0
2018-Nov-06 03:03N 27°53' W 014°60'114.0
2018-Nov-06 03:01N 27°52' W 015°00'611.1
2018-Nov-06 02:30N 27°47' W 014°58'613.1
2018-Nov-06 02:03N 27°45' W 014°51'112.7
2018-Nov-06 02:00N 27°45' W 014°50'712.9
2018-Nov-06 01:30N 27°44' W 014°43'4313.2
2018-Nov-05 22:14N 28°05' W 014°01'513.3
2018-Nov-05 21:53N 28°07' W 013°56'3312.8
2018-Nov-05 19:21N 28°36' W 013°40'613.2
2018-Nov-05 18:53N 28°42' W 013°38'513.5
2018-Nov-05 18:30N 28°47' W 013°36'613.5
2018-Nov-05 18:03N 28°53' W 013°33'113.3
2018-Nov-05 18:00N 28°53' W 013°33'5 9.6
2018-Nov-05 17:30N 28°58' W 013°32'0 0.0
2018-Nov-05 17:00N 28°58' W 013°32'0 0.0
2018-Nov-05 16:24N 28°58' W 013°32'0 0.0
2018-Nov-05 15:36N 28°58' W 013°32'0 0.0
2018-Nov-05 14:51N 28°58' W 013°32'0 0.0
2018-Nov-05 14:24N 28°58' W 013°32'0 0.0
2018-Nov-05 13:48N 28°58' W 013°32'0 0.0
2018-Nov-05 12:54N 28°58' W 013°32'0 0.0
2018-Nov-05 12:30N 28°58' W 013°32'0 0.0
2018-Nov-05 11:24N 28°58' W 013°32'0 0.0
2018-Nov-05 11:00N 28°58' W 013°32'0 0.0
2018-Nov-05 10:18N 28°58' W 013°32'0 0.0
2018-Nov-05 09:54N 28°58' W 013°32'0 0.0
2018-Nov-05 09:24N 28°58' W 013°32'0 0.0
2018-Nov-05 08:48N 28°58' W 013°32'0 0.0
2018-Nov-05 07:48N 28°58' W 013°32'0 0.0
2018-Nov-05 07:28N 28°58' W 013°32'0 1.0
2018-Nov-05 07:03N 28°57' W 013°32'0 2.4
2018-Nov-05 07:00N 28°57' W 013°32'611.8
2018-Nov-05 06:29N 28°60' W 013°25'715.6
2018-Nov-05 06:03N 29°03' W 013°19'116.2
2018-Nov-05 06:00N 29°04' W 013°18'  

Dump ship's entire track history